sensor_id;sensor_type;location;lat;lon;timestamp;P1;durP1;ratioP1;P2;durP2;ratioP2
59042;SDS011;44826;51.596;5.624;2022-10-16T00:02:18;3.80;;;2.20;;
59042;SDS011;44826;51.596;5.624;2022-10-16T00:04:43;4.45;;;2.25;;
59042;SDS011;44826;51.596;5.624;2022-10-16T00:07:09;4.75;;;2.28;;
59042;SDS011;44826;51.596;5.624;2022-10-16T00:09:34;2.85;;;2.05;;
59042;SDS011;44826;51.596;5.624;2022-10-16T00:11:59;5.10;;;2.40;;
59042;SDS011;44826;51.596;5.624;2022-10-16T00:14:24;3.97;;;2.25;;
59042;SDS011;44826;51.596;5.624;2022-10-16T00:16:50;4.60;;;2.35;;
59042;SDS011;44826;51.596;5.624;2022-10-16T00:19:15;4.03;;;2.22;;
59042;SDS011;44826;51.596;5.624;2022-10-16T00:21:40;3.60;;;2.25;;
59042;SDS011;44826;51.596;5.624;2022-10-16T00:24:08;4.30;;;2.17;;
59042;SDS011;44826;51.596;5.624;2022-10-16T00:26:36;4.45;;;2.40;;
59042;SDS011;44826;51.596;5.624;2022-10-16T00:29:03;3.63;;;2.25;;
59042;SDS011;44826;51.596;5.624;2022-10-16T00:31:29;3.78;;;2.10;;
59042;SDS011;44826;51.596;5.624;2022-10-16T00:33:54;4.30;;;2.10;;
59042;SDS011;44826;51.596;5.624;2022-10-16T00:36:21;4.18;;;2.50;;
59042;SDS011;44826;51.596;5.624;2022-10-16T00:38:49;5.63;;;2.15;;
59042;SDS011;44826;51.596;5.624;2022-10-16T00:41:19;4.82;;;2.20;;
59042;SDS011;44826;51.596;5.624;2022-10-16T00:46:28;5.18;;;2.50;;
59042;SDS011;44826;51.596;5.624;2022-10-16T00:51:27;2.80;;;2.00;;
59042;SDS011;44826;51.596;5.624;2022-10-16T00:53:57;4.05;;;2.08;;
59042;SDS011;44826;51.596;5.624;2022-10-16T00:56:23;2.83;;;1.90;;
59042;SDS011;44826;51.596;5.624;2022-10-16T00:58:48;3.58;;;2.25;;
59042;SDS011;44826;51.596;5.624;2022-10-16T01:01:14;4.32;;;1.95;;
59042;SDS011;44826;51.596;5.624;2022-10-16T01:03:39;4.00;;;2.10;;
59042;SDS011;44826;51.596;5.624;2022-10-16T01:06:07;4.47;;;2.10;;
59042;SDS011;44826;51.596;5.624;2022-10-16T01:08:49;5.68;;;1.90;;
59042;SDS011;44826;51.596;5.624;2022-10-16T01:11:30;3.50;;;2.03;;
59042;SDS011;44826;51.596;5.624;2022-10-16T01:14:03;4.10;;;1.95;;
59042;SDS011;44826;51.596;5.624;2022-10-16T01:16:38;3.60;;;1.92;;
59042;SDS011;44826;51.596;5.624;2022-10-16T01:21:46;4.13;;;1.80;;
59042;SDS011;44826;51.596;5.624;2022-10-16T01:26:57;3.97;;;1.73;;
59042;SDS011;44826;51.596;5.624;2022-10-16T01:29:39;3.20;;;1.98;;
59042;SDS011;44826;51.596;5.624;2022-10-16T01:35:04;3.00;;;1.85;;
59042;SDS011;44826;51.596;5.624;2022-10-16T01:37:49;5.70;;;1.90;;
59042;SDS011;44826;51.596;5.624;2022-10-16T01:40:20;5.30;;;1.70;;
59042;SDS011;44826;51.596;5.624;2022-10-16T01:42:50;3.25;;;1.77;;
59042;SDS011;44826;51.596;5.624;2022-10-16T01:45:20;2.95;;;1.80;;
59042;SDS011;44826;51.596;5.624;2022-10-16T01:47:46;3.33;;;1.63;;
59042;SDS011;44826;51.596;5.624;2022-10-16T01:50:14;4.05;;;1.77;;
59042;SDS011;44826;51.596;5.624;2022-10-16T01:52:43;4.15;;;1.63;;
59042;SDS011;44826;51.596;5.624;2022-10-16T01:55:12;4.15;;;1.90;;
59042;SDS011;44826;51.596;5.624;2022-10-16T01:57:45;3.78;;;1.67;;
59042;SDS011;44826;51.596;5.624;2022-10-16T02:00:13;3.28;;;1.58;;
59042;SDS011;44826;51.596;5.624;2022-10-16T02:02:41;3.83;;;1.52;;
59042;SDS011;44826;51.596;5.624;2022-10-16T02:07:41;2.58;;;1.63;;
59042;SDS011;44826;51.596;5.624;2022-10-16T02:10:07;5.22;;;1.80;;
59042;SDS011;44826;51.596;5.624;2022-10-16T02:12:33;3.83;;;1.77;;
59042;SDS011;44826;51.596;5.624;2022-10-16T02:15:04;2.70;;;1.40;;
59042;SDS011;44826;51.596;5.624;2022-10-16T02:17:30;2.92;;;1.60;;
59042;SDS011;44826;51.596;5.624;2022-10-16T02:19:56;2.00;;;1.27;;
59042;SDS011;44826;51.596;5.624;2022-10-16T02:22:32;3.03;;;1.60;;
59042;SDS011;44826;51.596;5.624;2022-10-16T02:25:22;2.20;;;1.40;;
59042;SDS011;44826;51.596;5.624;2022-10-16T02:30:33;3.80;;;1.27;;
59042;SDS011;44826;51.596;5.624;2022-10-16T02:33:03;2.05;;;1.33;;
59042;SDS011;44826;51.596;5.624;2022-10-16T02:35:32;2.38;;;1.50;;
59042;SDS011;44826;51.596;5.624;2022-10-16T02:37:57;3.42;;;1.73;;
59042;SDS011;44826;51.596;5.624;2022-10-16T02:40:24;2.45;;;1.30;;
59042;SDS011;44826;51.596;5.624;2022-10-16T02:42:51;2.63;;;1.20;;
59042;SDS011;44826;51.596;5.624;2022-10-16T02:45:18;3.80;;;1.42;;
59042;SDS011;44826;51.596;5.624;2022-10-16T02:47:43;2.88;;;1.52;;
59042;SDS011;44826;51.596;5.624;2022-10-16T02:50:09;2.40;;;1.40;;
59042;SDS011;44826;51.596;5.624;2022-10-16T02:52:34;3.97;;;1.33;;
59042;SDS011;44826;51.596;5.624;2022-10-16T02:54:59;1.80;;;1.20;;
59042;SDS011;44826;51.596;5.624;2022-10-16T02:57:25;1.45;;;1.17;;
59042;SDS011;44826;51.596;5.624;2022-10-16T02:59:50;3.67;;;1.40;;
59042;SDS011;44826;51.596;5.624;2022-10-16T03:02:15;2.40;;;1.25;;
59042;SDS011;44826;51.596;5.624;2022-10-16T03:04:41;1.70;;;1.38;;
59042;SDS011;44826;51.596;5.624;2022-10-16T03:07:06;2.42;;;1.35;;
59042;SDS011;44826;51.596;5.624;2022-10-16T03:09:32;5.80;;;1.63;;
59042;SDS011;44826;51.596;5.624;2022-10-16T03:11:57;2.88;;;1.30;;
59042;SDS011;44826;51.596;5.624;2022-10-16T03:14:23;4.15;;;1.20;;
59042;SDS011;44826;51.596;5.624;2022-10-16T03:16:48;2.65;;;1.33;;
59042;SDS011;44826;51.596;5.624;2022-10-16T03:19:13;2.42;;;1.45;;
59042;SDS011;44826;51.596;5.624;2022-10-16T03:21:40;2.20;;;1.20;;
59042;SDS011;44826;51.596;5.624;2022-10-16T03:24:06;1.60;;;1.10;;
59042;SDS011;44826;51.596;5.624;2022-10-16T03:26:31;2.60;;;1.40;;
59042;SDS011;44826;51.596;5.624;2022-10-16T03:28:56;2.30;;;1.48;;
59042;SDS011;44826;51.596;5.624;2022-10-16T03:31:21;1.60;;;1.10;;
59042;SDS011;44826;51.596;5.624;2022-10-16T03:33:47;2.35;;;1.38;;
59042;SDS011;44826;51.596;5.624;2022-10-16T03:36:12;3.13;;;1.23;;
59042;SDS011;44826;51.596;5.624;2022-10-16T03:38:37;2.60;;;1.20;;
59042;SDS011;44826;51.596;5.624;2022-10-16T03:41:03;2.83;;;1.25;;
59042;SDS011;44826;51.596;5.624;2022-10-16T03:43:28;2.45;;;1.33;;
59042;SDS011;44826;51.596;5.624;2022-10-16T03:45:54;3.83;;;1.35;;
59042;SDS011;44826;51.596;5.624;2022-10-16T03:48:19;1.85;;;1.10;;
59042;SDS011;44826;51.596;5.624;2022-10-16T03:50:44;1.73;;;1.15;;
59042;SDS011;44826;51.596;5.624;2022-10-16T03:53:11;2.03;;;1.30;;
59042;SDS011;44826;51.596;5.624;2022-10-16T03:55:36;1.48;;;1.15;;
59042;SDS011;44826;51.596;5.624;2022-10-16T03:58:02;2.50;;;1.20;;
59042;SDS011;44826;51.596;5.624;2022-10-16T04:00:27;2.55;;;1.30;;
59042;SDS011;44826;51.596;5.624;2022-10-16T04:02:52;2.80;;;1.25;;
59042;SDS011;44826;51.596;5.624;2022-10-16T04:05:18;3.50;;;1.10;;
59042;SDS011;44826;51.596;5.624;2022-10-16T04:07:43;2.47;;;1.60;;
59042;SDS011;44826;51.596;5.624;2022-10-16T04:10:08;1.80;;;1.20;;
59042;SDS011;44826;51.596;5.624;2022-10-16T04:12:34;2.05;;;1.10;;
59042;SDS011;44826;51.596;5.624;2022-10-16T04:14:59;2.38;;;1.20;;
59042;SDS011;44826;51.596;5.624;2022-10-16T04:17:24;1.65;;;1.10;;
59042;SDS011;44826;51.596;5.624;2022-10-16T04:19:49;2.40;;;1.38;;
59042;SDS011;44826;51.596;5.624;2022-10-16T04:22:15;3.55;;;1.20;;
59042;SDS011;44826;51.596;5.624;2022-10-16T04:24:40;1.77;;;1.20;;
59042;SDS011;44826;51.596;5.624;2022-10-16T04:27:05;2.33;;;1.10;;
59042;SDS011;44826;51.596;5.624;2022-10-16T04:29:30;1.33;;;1.02;;
59042;SDS011;44826;51.596;5.624;2022-10-16T04:31:56;2.17;;;1.10;;
59042;SDS011;44826;51.596;5.624;2022-10-16T04:34:21;2.47;;;1.20;;
59042;SDS011;44826;51.596;5.624;2022-10-16T04:36:47;1.83;;;1.10;;
59042;SDS011;44826;51.596;5.624;2022-10-16T04:39:14;3.20;;;1.30;;
59042;SDS011;44826;51.596;5.624;2022-10-16T04:41:39;4.18;;;1.23;;
59042;SDS011;44826;51.596;5.624;2022-10-16T04:44:04;2.60;;;1.15;;
59042;SDS011;44826;51.596;5.624;2022-10-16T04:46:30;3.00;;;1.30;;
59042;SDS011;44826;51.596;5.624;2022-10-16T04:48:55;3.88;;;1.40;;
59042;SDS011;44826;51.596;5.624;2022-10-16T04:51:20;2.63;;;1.25;;
59042;SDS011;44826;51.596;5.624;2022-10-16T04:53:45;2.65;;;1.20;;
59042;SDS011;44826;51.596;5.624;2022-10-16T04:56:11;3.13;;;1.40;;
59042;SDS011;44826;51.596;5.624;2022-10-16T04:58:36;2.70;;;1.20;;
59042;SDS011;44826;51.596;5.624;2022-10-16T05:01:01;2.35;;;1.38;;
59042;SDS011;44826;51.596;5.624;2022-10-16T05:03:26;3.20;;;1.40;;
59042;SDS011;44826;51.596;5.624;2022-10-16T05:05:52;2.75;;;1.10;;
59042;SDS011;44826;51.596;5.624;2022-10-16T05:08:17;4.45;;;1.40;;
59042;SDS011;44826;51.596;5.624;2022-10-16T05:10:43;2.22;;;1.25;;
59042;SDS011;44826;51.596;5.624;2022-10-16T05:13:08;3.58;;;1.30;;
59042;SDS011;44826;51.596;5.624;2022-10-16T05:15:34;2.40;;;1.40;;
59042;SDS011;44826;51.596;5.624;2022-10-16T05:17:59;2.05;;;1.08;;
59042;SDS011;44826;51.596;5.624;2022-10-16T05:20:25;3.78;;;1.40;;
59042;SDS011;44826;51.596;5.624;2022-10-16T05:22:50;2.03;;;1.27;;
59042;SDS011;44826;51.596;5.624;2022-10-16T05:25:16;4.20;;;1.40;;
59042;SDS011;44826;51.596;5.624;2022-10-16T05:27:41;3.78;;;1.30;;
59042;SDS011;44826;51.596;5.624;2022-10-16T05:30:06;2.67;;;1.20;;
59042;SDS011;44826;51.596;5.624;2022-10-16T05:32:32;3.47;;;1.45;;
59042;SDS011;44826;51.596;5.624;2022-10-16T05:34:57;2.55;;;1.73;;
59042;SDS011;44826;51.596;5.624;2022-10-16T05:37:24;4.53;;;1.83;;
59042;SDS011;44826;51.596;5.624;2022-10-16T05:39:50;4.13;;;1.40;;
59042;SDS011;44826;51.596;5.624;2022-10-16T05:42:15;5.22;;;1.50;;
59042;SDS011;44826;51.596;5.624;2022-10-16T05:44:41;2.45;;;1.20;;
59042;SDS011;44826;51.596;5.624;2022-10-16T05:47:06;4.32;;;1.33;;
59042;SDS011;44826;51.596;5.624;2022-10-16T05:49:31;3.60;;;1.50;;
59042;SDS011;44826;51.596;5.624;2022-10-16T05:51:57;2.25;;;1.20;;
59042;SDS011;44826;51.596;5.624;2022-10-16T05:54:22;5.30;;;1.38;;
59042;SDS011;44826;51.596;5.624;2022-10-16T05:56:47;3.15;;;1.42;;
59042;SDS011;44826;51.596;5.624;2022-10-16T05:59:12;2.40;;;1.40;;
59042;SDS011;44826;51.596;5.624;2022-10-16T06:01:38;3.92;;;1.40;;
59042;SDS011;44826;51.596;5.624;2022-10-16T06:04:03;3.67;;;1.60;;
59042;SDS011;44826;51.596;5.624;2022-10-16T06:06:29;3.45;;;1.20;;
59042;SDS011;44826;51.596;5.624;2022-10-16T06:08:55;2.55;;;1.38;;
59042;SDS011;44826;51.596;5.624;2022-10-16T06:11:25;3.33;;;1.25;;
59042;SDS011;44826;51.596;5.624;2022-10-16T06:13:52;2.33;;;1.30;;
59042;SDS011;44826;51.596;5.624;2022-10-16T06:16:21;4.45;;;1.40;;
59042;SDS011;44826;51.596;5.624;2022-10-16T06:18:47;2.60;;;1.33;;
59042;SDS011;44826;51.596;5.624;2022-10-16T06:21:22;3.45;;;1.30;;
59042;SDS011;44826;51.596;5.624;2022-10-16T06:23:51;2.10;;;1.20;;
59042;SDS011;44826;51.596;5.624;2022-10-16T06:26:18;2.63;;;1.50;;
59042;SDS011;44826;51.596;5.624;2022-10-16T06:28:45;4.28;;;1.30;;
59042;SDS011;44826;51.596;5.624;2022-10-16T06:31:11;1.73;;;1.23;;
59042;SDS011;44826;51.596;5.624;2022-10-16T06:33:38;4.18;;;1.42;;
59042;SDS011;44826;51.596;5.624;2022-10-16T06:36:08;2.45;;;1.30;;
59042;SDS011;44826;51.596;5.624;2022-10-16T06:38:35;3.10;;;1.50;;
59042;SDS011;44826;51.596;5.624;2022-10-16T06:41:01;4.18;;;1.40;;
59042;SDS011;44826;51.596;5.624;2022-10-16T06:43:28;4.38;;;1.50;;
59042;SDS011;44826;51.596;5.624;2022-10-16T06:46:00;4.03;;;1.60;;
59042;SDS011;44826;51.596;5.624;2022-10-16T06:48:26;2.67;;;1.50;;
59042;SDS011;44826;51.596;5.624;2022-10-16T06:53:20;2.15;;;1.30;;
59042;SDS011;44826;51.596;5.624;2022-10-16T06:55:46;4.00;;;1.40;;
59042;SDS011;44826;51.596;5.624;2022-10-16T06:58:11;5.57;;;1.67;;
59042;SDS011;44826;51.596;5.624;2022-10-16T07:00:36;2.70;;;1.48;;
59042;SDS011;44826;51.596;5.624;2022-10-16T07:03:02;2.20;;;1.60;;
59042;SDS011;44826;51.596;5.624;2022-10-16T07:05:27;2.90;;;1.40;;
59042;SDS011;44826;51.596;5.624;2022-10-16T07:07:52;3.22;;;1.60;;
59042;SDS011;44826;51.596;5.624;2022-10-16T07:10:17;2.95;;;1.58;;
59042;SDS011;44826;51.596;5.624;2022-10-16T07:12:43;2.83;;;1.70;;
59042;SDS011;44826;51.596;5.624;2022-10-16T07:15:10;3.13;;;1.60;;
59042;SDS011;44826;51.596;5.624;2022-10-16T07:17:35;2.47;;;1.70;;
59042;SDS011;44826;51.596;5.624;2022-10-16T07:20:01;3.30;;;1.65;;
59042;SDS011;44826;51.596;5.624;2022-10-16T07:22:27;2.45;;;1.60;;
59042;SDS011;44826;51.596;5.624;2022-10-16T07:24:53;3.33;;;1.85;;
59042;SDS011;44826;51.596;5.624;2022-10-16T07:27:18;3.38;;;1.88;;
59042;SDS011;44826;51.596;5.624;2022-10-16T07:29:43;3.25;;;1.98;;
59042;SDS011;44826;51.596;5.624;2022-10-16T07:32:09;2.55;;;1.67;;
59042;SDS011;44826;51.596;5.624;2022-10-16T07:34:34;2.58;;;1.83;;
59042;SDS011;44826;51.596;5.624;2022-10-16T07:36:59;4.45;;;1.70;;
59042;SDS011;44826;51.596;5.624;2022-10-16T07:39:25;4.63;;;1.70;;
59042;SDS011;44826;51.596;5.624;2022-10-16T07:41:50;5.32;;;1.83;;
59042;SDS011;44826;51.596;5.624;2022-10-16T07:44:15;4.15;;;1.80;;
59042;SDS011;44826;51.596;5.624;2022-10-16T07:46:41;6.63;;;1.90;;
59042;SDS011;44826;51.596;5.624;2022-10-16T07:49:06;2.47;;;1.65;;
59042;SDS011;44826;51.596;5.624;2022-10-16T07:51:31;2.85;;;1.70;;
59042;SDS011;44826;51.596;5.624;2022-10-16T07:53:57;3.45;;;1.50;;
59042;SDS011;44826;51.596;5.624;2022-10-16T07:56:22;3.03;;;1.60;;
59042;SDS011;44826;51.596;5.624;2022-10-16T07:58:48;3.10;;;1.60;;
59042;SDS011;44826;51.596;5.624;2022-10-16T08:01:15;3.47;;;1.50;;
59042;SDS011;44826;51.596;5.624;2022-10-16T08:03:42;3.65;;;1.45;;
59042;SDS011;44826;51.596;5.624;2022-10-16T08:06:11;2.80;;;1.30;;
59042;SDS011;44826;51.596;5.624;2022-10-16T08:08:37;4.43;;;1.50;;
59042;SDS011;44826;51.596;5.624;2022-10-16T08:11:02;3.65;;;1.33;;
59042;SDS011;44826;51.596;5.624;2022-10-16T08:13:30;3.72;;;1.33;;
59042;SDS011;44826;51.596;5.624;2022-10-16T08:15:56;2.60;;;1.30;;
59042;SDS011;44826;51.596;5.624;2022-10-16T08:18:21;2.38;;;1.20;;
59042;SDS011;44826;51.596;5.624;2022-10-16T08:20:47;3.67;;;1.40;;
59042;SDS011;44826;51.596;5.624;2022-10-16T08:23:12;2.80;;;1.48;;
59042;SDS011;44826;51.596;5.624;2022-10-16T08:25:38;3.40;;;1.60;;
59042;SDS011;44826;51.596;5.624;2022-10-16T08:28:05;3.67;;;1.25;;
59042;SDS011;44826;51.596;5.624;2022-10-16T08:30:31;4.47;;;1.30;;
59042;SDS011;44826;51.596;5.624;2022-10-16T08:32:57;3.97;;;1.13;;
59042;SDS011;44826;51.596;5.624;2022-10-16T08:35:23;3.63;;;1.33;;
59042;SDS011;44826;51.596;5.624;2022-10-16T08:37:48;2.40;;;1.10;;
59042;SDS011;44826;51.596;5.624;2022-10-16T08:40:24;3.17;;;1.80;;
59042;SDS011;44826;51.596;5.624;2022-10-16T08:48:27;2.83;;;1.20;;
59042;SDS011;44826;51.596;5.624;2022-10-16T08:51:00;3.95;;;1.33;;
59042;SDS011;44826;51.596;5.624;2022-10-16T08:53:36;3.83;;;1.23;;
59042;SDS011;44826;51.596;5.624;2022-10-16T08:56:09;6.03;;;1.30;;
59042;SDS011;44826;51.596;5.624;2022-10-16T08:58:34;5.40;;;1.40;;
59042;SDS011;44826;51.596;5.624;2022-10-16T09:01:03;4.40;;;1.30;;
59042;SDS011;44826;51.596;5.624;2022-10-16T09:06:40;7.97;;;1.40;;
59042;SDS011;44826;51.596;5.624;2022-10-16T09:11:51;4.32;;;1.38;;
59042;SDS011;44826;51.596;5.624;2022-10-16T09:17:36;4.15;;;1.40;;
59042;SDS011;44826;51.596;5.624;2022-10-16T09:23:13;4.82;;;1.40;;
59042;SDS011;44826;51.596;5.624;2022-10-16T09:25:53;4.15;;;1.30;;
59042;SDS011;44826;51.596;5.624;2022-10-16T09:28:19;5.38;;;1.20;;
59042;SDS011;44826;51.596;5.624;2022-10-16T09:30:45;4.80;;;1.30;;
59042;SDS011;44826;51.596;5.624;2022-10-16T09:33:13;6.45;;;1.45;;
59042;SDS011;44826;51.596;5.624;2022-10-16T09:35:44;3.97;;;1.10;;
59042;SDS011;44826;51.596;5.624;2022-10-16T09:38:21;5.03;;;1.08;;
59042;SDS011;44826;51.596;5.624;2022-10-16T09:40:54;4.93;;;1.25;;
59042;SDS011;44826;51.596;5.624;2022-10-16T09:49:01;6.32;;;1.35;;
59042;SDS011;44826;51.596;5.624;2022-10-16T09:51:33;4.55;;;1.08;;
59042;SDS011;44826;51.596;5.624;2022-10-16T09:54:12;7.32;;;1.27;;
59042;SDS011;44826;51.596;5.624;2022-10-16T09:56:39;3.38;;;1.20;;
59042;SDS011;44826;51.596;5.624;2022-10-16T09:59:10;5.07;;;1.33;;
59042;SDS011;44826;51.596;5.624;2022-10-16T10:01:44;5.05;;;1.10;;
59042;SDS011;44826;51.596;5.624;2022-10-16T10:04:10;8.43;;;1.40;;
59042;SDS011;44826;51.596;5.624;2022-10-16T10:06:36;4.30;;;1.20;;
59042;SDS011;44826;51.596;5.624;2022-10-16T10:09:06;6.07;;;1.42;;
59042;SDS011;44826;51.596;5.624;2022-10-16T10:11:47;5.63;;;1.10;;
59042;SDS011;44826;51.596;5.624;2022-10-16T10:14:23;8.68;;;1.50;;
59042;SDS011;44826;51.596;5.624;2022-10-16T10:19:38;6.78;;;1.38;;
59042;SDS011;44826;51.596;5.624;2022-10-16T10:22:28;7.60;;;1.20;;
59042;SDS011;44826;51.596;5.624;2022-10-16T10:24:56;3.83;;;1.00;;
59042;SDS011;44826;51.596;5.624;2022-10-16T10:44:37;6.47;;;1.10;;
59042;SDS011;44826;51.596;5.624;2022-10-16T10:53:33;5.95;;;1.10;;
59042;SDS011;44826;51.596;5.624;2022-10-16T11:01:52;3.17;;;1.00;;
59042;SDS011;44826;51.596;5.624;2022-10-16T11:04:32;2.70;;;1.10;;
59042;SDS011;44826;51.596;5.624;2022-10-16T11:07:14;4.35;;;1.38;;
59042;SDS011;44826;51.596;5.624;2022-10-16T11:09:47;4.40;;;1.05;;
59042;SDS011;44826;51.596;5.624;2022-10-16T11:15:04;6.97;;;1.00;;
59042;SDS011;44826;51.596;5.624;2022-10-16T11:17:44;5.35;;;1.00;;
59042;SDS011;44826;51.596;5.624;2022-10-16T11:22:46;6.30;;;1.10;;
59042;SDS011;44826;51.596;5.624;2022-10-16T11:25:20;4.43;;;1.10;;
59042;SDS011;44826;51.596;5.624;2022-10-16T11:31:11;5.28;;;1.05;;
59042;SDS011;44826;51.596;5.624;2022-10-16T11:33:47;9.03;;;1.20;;
59042;SDS011;44826;51.596;5.624;2022-10-16T11:36:33;5.93;;;1.13;;
59042;SDS011;44826;51.596;5.624;2022-10-16T11:46:35;7.47;;;1.10;;
59042;SDS011;44826;51.596;5.624;2022-10-16T11:54:49;6.75;;;1.10;;
59042;SDS011;44826;51.596;5.624;2022-10-16T12:05:01;4.10;;;1.00;;
59042;SDS011;44826;51.596;5.624;2022-10-16T12:07:36;5.45;;;1.05;;
59042;SDS011;44826;51.596;5.624;2022-10-16T12:10:22;8.07;;;1.40;;
59042;SDS011;44826;51.596;5.624;2022-10-16T12:12:52;6.70;;;1.30;;
59042;SDS011;44826;51.596;5.624;2022-10-16T12:15:25;4.30;;;1.08;;
59042;SDS011;44826;51.596;5.624;2022-10-16T12:17:52;4.60;;;1.10;;
59042;SDS011;44826;51.596;5.624;2022-10-16T12:25:57;9.15;;;1.45;;
59042;SDS011;44826;51.596;5.624;2022-10-16T12:28:27;7.35;;;1.30;;
59042;SDS011;44826;51.596;5.624;2022-10-16T12:30:56;5.80;;;1.10;;
59042;SDS011;44826;51.596;5.624;2022-10-16T12:33:25;5.05;;;1.15;;
59042;SDS011;44826;51.596;5.624;2022-10-16T12:35:52;5.32;;;1.05;;
59042;SDS011;44826;51.596;5.624;2022-10-16T12:38:20;5.57;;;1.02;;
59042;SDS011;44826;51.596;5.624;2022-10-16T12:40:58;4.65;;;1.00;;
59042;SDS011;44826;51.596;5.624;2022-10-16T12:43:35;5.20;;;0.80;;
59042;SDS011;44826;51.596;5.624;2022-10-16T12:48:34;3.17;;;0.88;;
59042;SDS011;44826;51.596;5.624;2022-10-16T12:51:10;2.65;;;0.70;;
59042;SDS011;44826;51.596;5.624;2022-10-16T12:53:36;3.50;;;0.73;;
59042;SDS011;44826;51.596;5.624;2022-10-16T12:56:09;5.82;;;0.70;;
59042;SDS011;44826;51.596;5.624;2022-10-16T12:58:50;4.53;;;1.00;;
59042;SDS011;44826;51.596;5.624;2022-10-16T13:07:03;3.05;;;0.90;;
59042;SDS011;44826;51.596;5.624;2022-10-16T13:13:02;4.20;;;0.90;;
59042;SDS011;44826;51.596;5.624;2022-10-16T13:15:37;5.80;;;1.17;;
59042;SDS011;44826;51.596;5.624;2022-10-16T13:18:12;4.75;;;1.48;;
59042;SDS011;44826;51.596;5.624;2022-10-16T13:20:51;4.55;;;0.82;;
59042;SDS011;44826;51.596;5.624;2022-10-16T13:26:40;2.20;;;0.68;;
59042;SDS011;44826;51.596;5.624;2022-10-16T13:29:11;3.88;;;0.85;;
59042;SDS011;44826;51.596;5.624;2022-10-16T13:31:38;2.38;;;0.73;;
59042;SDS011;44826;51.596;5.624;2022-10-16T13:34:04;3.92;;;0.88;;
59042;SDS011;44826;51.596;5.624;2022-10-16T13:36:35;4.55;;;1.02;;
59042;SDS011;44826;51.596;5.624;2022-10-16T13:42:02;3.47;;;0.85;;
59042;SDS011;44826;51.596;5.624;2022-10-16T13:47:00;2.78;;;0.60;;
59042;SDS011;44826;51.596;5.624;2022-10-16T13:49:27;4.72;;;0.90;;
59042;SDS011;44826;51.596;5.624;2022-10-16T13:51:55;3.85;;;0.70;;
59042;SDS011;44826;51.596;5.624;2022-10-16T13:54:27;4.72;;;0.90;;
59042;SDS011;44826;51.596;5.624;2022-10-16T13:56:56;2.47;;;0.68;;
59042;SDS011;44826;51.596;5.624;2022-10-16T13:59:25;4.28;;;0.80;;
59042;SDS011;44826;51.596;5.624;2022-10-16T14:01:55;3.20;;;0.73;;
59042;SDS011;44826;51.596;5.624;2022-10-16T14:04:22;3.53;;;0.80;;
59042;SDS011;44826;51.596;5.624;2022-10-16T14:06:49;3.47;;;0.82;;
59042;SDS011;44826;51.596;5.624;2022-10-16T14:09:21;4.70;;;1.00;;
59042;SDS011;44826;51.596;5.624;2022-10-16T14:11:50;3.28;;;0.80;;
59042;SDS011;44826;51.596;5.624;2022-10-16T14:14:19;3.08;;;0.65;;
59042;SDS011;44826;51.596;5.624;2022-10-16T14:16:45;6.13;;;0.73;;
59042;SDS011;44826;51.596;5.624;2022-10-16T14:19:29;2.83;;;0.80;;
59042;SDS011;44826;51.596;5.624;2022-10-16T14:21:56;4.07;;;1.00;;
59042;SDS011;44826;51.596;5.624;2022-10-16T14:29:21;3.15;;;0.70;;
59042;SDS011;44826;51.596;5.624;2022-10-16T14:31:57;4.97;;;0.95;;
59042;SDS011;44826;51.596;5.624;2022-10-16T14:34:26;3.53;;;0.90;;
59042;SDS011;44826;51.596;5.624;2022-10-16T14:37:06;3.15;;;0.90;;
59042;SDS011;44826;51.596;5.624;2022-10-16T14:39:39;2.35;;;0.77;;
59042;SDS011;44826;51.596;5.624;2022-10-16T14:42:11;2.30;;;0.80;;
59042;SDS011;44826;51.596;5.624;2022-10-16T14:44:39;5.47;;;0.90;;
59042;SDS011;44826;51.596;5.624;2022-10-16T14:47:15;3.40;;;0.90;;
59042;SDS011;44826;51.596;5.624;2022-10-16T14:49:47;3.67;;;0.70;;
59042;SDS011;44826;51.596;5.624;2022-10-16T14:52:12;3.15;;;1.05;;
59042;SDS011;44826;51.596;5.624;2022-10-16T14:54:37;4.07;;;1.00;;
59042;SDS011;44826;51.596;5.624;2022-10-16T14:57:03;3.97;;;1.10;;
59042;SDS011;44826;51.596;5.624;2022-10-16T14:59:36;3.45;;;0.90;;
59042;SDS011;44826;51.596;5.624;2022-10-16T15:04:52;3.83;;;0.90;;
59042;SDS011;44826;51.596;5.624;2022-10-16T15:07:17;3.78;;;1.15;;
59042;SDS011;44826;51.596;5.624;2022-10-16T15:09:42;2.90;;;0.90;;
59042;SDS011;44826;51.596;5.624;2022-10-16T15:12:08;3.97;;;0.82;;
59042;SDS011;44826;51.596;5.624;2022-10-16T15:14:33;4.75;;;1.10;;
59042;SDS011;44826;51.596;5.624;2022-10-16T15:16:58;3.80;;;1.52;;
59042;SDS011;44826;51.596;5.624;2022-10-16T15:19:24;1.98;;;0.65;;
59042;SDS011;44826;51.596;5.624;2022-10-16T15:21:49;1.50;;;0.70;;
59042;SDS011;44826;51.596;5.624;2022-10-16T15:24:14;1.52;;;0.80;;
59042;SDS011;44826;51.596;5.624;2022-10-16T15:26:40;1.58;;;0.75;;
59042;SDS011;44826;51.596;5.624;2022-10-16T15:29:06;5.32;;;0.88;;
59042;SDS011;44826;51.596;5.624;2022-10-16T15:31:31;1.55;;;0.70;;
59042;SDS011;44826;51.596;5.624;2022-10-16T15:33:57;2.28;;;0.60;;
59042;SDS011;44826;51.596;5.624;2022-10-16T15:36:30;2.10;;;0.70;;
59042;SDS011;44826;51.596;5.624;2022-10-16T15:39:05;4.20;;;0.90;;
59042;SDS011;44826;51.596;5.624;2022-10-16T15:41:37;3.50;;;0.90;;
59042;SDS011;44826;51.596;5.624;2022-10-16T15:44:02;1.77;;;0.52;;
59042;SDS011;44826;51.596;5.624;2022-10-16T15:46:28;4.30;;;0.80;;
59042;SDS011;44826;51.596;5.624;2022-10-16T15:48:56;3.65;;;0.90;;
59042;SDS011;44826;51.596;5.624;2022-10-16T15:51:23;2.95;;;0.77;;
59042;SDS011;44826;51.596;5.624;2022-10-16T15:53:49;4.32;;;0.95;;
59042;SDS011;44826;51.596;5.624;2022-10-16T15:56:16;5.53;;;1.20;;
59042;SDS011;44826;51.596;5.624;2022-10-16T15:58:42;2.80;;;1.00;;
59042;SDS011;44826;51.596;5.624;2022-10-16T16:01:07;4.47;;;0.90;;
59042;SDS011;44826;51.596;5.624;2022-10-16T16:03:34;3.83;;;1.30;;
59042;SDS011;44826;51.596;5.624;2022-10-16T16:06:04;5.40;;;1.50;;
59042;SDS011;44826;51.596;5.624;2022-10-16T16:08:34;4.55;;;1.40;;
59042;SDS011;44826;51.596;5.624;2022-10-16T16:11:01;8.30;;;1.98;;
59042;SDS011;44826;51.596;5.624;2022-10-16T16:13:27;5.45;;;1.63;;
59042;SDS011;44826;51.596;5.624;2022-10-16T16:15:53;5.05;;;1.25;;
59042;SDS011;44826;51.596;5.624;2022-10-16T16:18:19;5.18;;;1.70;;
59042;SDS011;44826;51.596;5.624;2022-10-16T16:20:44;4.15;;;1.58;;
59042;SDS011;44826;51.596;5.624;2022-10-16T16:23:09;4.90;;;1.60;;
59042;SDS011;44826;51.596;5.624;2022-10-16T16:25:35;6.65;;;1.80;;
59042;SDS011;44826;51.596;5.624;2022-10-16T16:28:01;3.47;;;1.63;;
59042;SDS011;44826;51.596;5.624;2022-10-16T16:30:26;3.55;;;1.77;;
59042;SDS011;44826;51.596;5.624;2022-10-16T16:32:51;4.35;;;1.90;;
59042;SDS011;44826;51.596;5.624;2022-10-16T16:35:17;3.40;;;1.55;;
59042;SDS011;44826;51.596;5.624;2022-10-16T16:37:42;5.32;;;1.70;;
59042;SDS011;44826;51.596;5.624;2022-10-16T16:40:07;2.83;;;1.48;;
59042;SDS011;44826;51.596;5.624;2022-10-16T16:42:32;2.47;;;1.38;;
59042;SDS011;44826;51.596;5.624;2022-10-16T16:44:58;4.18;;;1.33;;
59042;SDS011;44826;51.596;5.624;2022-10-16T16:47:24;2.65;;;1.50;;
59042;SDS011;44826;51.596;5.624;2022-10-16T16:49:49;3.13;;;1.33;;
59042;SDS011;44826;51.596;5.624;2022-10-16T16:52:14;5.18;;;1.48;;
59042;SDS011;44826;51.596;5.624;2022-10-16T16:54:40;3.72;;;1.10;;
59042;SDS011;44826;51.596;5.624;2022-10-16T16:57:05;2.75;;;1.30;;
59042;SDS011;44826;51.596;5.624;2022-10-16T16:59:30;3.80;;;1.48;;
59042;SDS011;44826;51.596;5.624;2022-10-16T17:01:57;5.03;;;1.40;;
59042;SDS011;44826;51.596;5.624;2022-10-16T17:04:24;3.40;;;1.35;;
59042;SDS011;44826;51.596;5.624;2022-10-16T17:06:50;2.90;;;1.33;;
59042;SDS011;44826;51.596;5.624;2022-10-16T17:09:15;4.43;;;1.52;;
59042;SDS011;44826;51.596;5.624;2022-10-16T17:11:40;3.20;;;1.30;;
59042;SDS011;44826;51.596;5.624;2022-10-16T17:14:07;3.92;;;1.60;;